Time;durP1;ratioP1;P1;durP2;ratioP2;P2;SDS_P1;SDS_P2;PMS_P1;PMS_P2;Temp;Humidity;BMP_temperature;BMP_pressure;BME280_temperature;BME280_humidity;BME280_pressure;Samples;Min_cycle;Max_cycle;Signal;HPM_P1;HPM_P2
2021/04/16 00:00:54;;;;;;;6.03;5.45;;;;;;;18.37;66.13;99189.29;1759002;80;22013;-69
2021/04/16 00:03:24;;;;;;;5.65;5.15;;;;;;;18.34;66.23;99191.12;1760095;80;21651;-68
2021/04/16 00:05:52;;;;;;;5.42;4.92;;;;;;;18.33;66.26;99193.50;1759048;80;21179;-68
2021/04/16 00:08:30;;;;;;;4.67;4.25;;;;;;;18.30;66.31;99192.64;1760884;80;21179;-68
2021/04/16 00:11:05;;;;;;;5.03;4.60;;;;;;;18.32;66.40;99188.66;1772800;78;21119;-68
2021/04/16 00:13:34;;;;;;;5.03;4.53;;;;;;;18.39;66.09;99189.91;1782719;78;21821;-66
2021/04/16 00:16:06;;;;;;;5.35;4.92;;;;;;;18.36;66.05;99189.83;1824199;78;21175;-68
2021/04/16 00:18:35;;;;;;;5.53;5.03;;;;;;;18.35;66.11;99188.70;1817567;78;21179;-68
2021/04/16 00:21:03;;;;;;;5.00;4.50;;;;;;;18.30;66.17;99185.38;1820222;78;21158;-67
2021/04/16 00:23:32;;;;;;;4.85;4.45;;;;;;;18.28;66.21;99183.45;1832208;77;21151;-67
2021/04/16 00:26:00;;;;;;;5.42;4.92;;;;;;;18.26;66.26;99186.36;1804929;78;21451;-67
2021/04/16 00:28:27;;;;;;;4.47;4.08;;;;;;;18.24;66.33;99187.13;1813261;78;21130;-68
2021/04/16 00:31:11;;;;;;;4.83;4.33;;;;;;;18.29;66.30;99186.42;1843370;77;21473;-68
2021/04/16 00:33:41;;;;;;;5.20;4.67;;;;;;;18.37;66.03;99186.60;1801037;78;21534;-68
2021/04/16 00:36:09;;;;;;;4.97;4.58;;;;;;;18.34;66.02;99188.43;1829700;78;21578;-68
2021/04/16 00:38:37;;;;;;;4.95;4.55;;;;;;;18.30;66.07;99186.72;1832166;78;21134;-68
2021/04/16 00:41:08;;;;;;;4.80;4.40;;;;;;;18.26;66.15;99185.02;1807707;78;21527;-66
2021/04/16 00:43:36;;;;;;;4.55;4.15;;;;;;;18.24;66.15;99183.09;1816021;78;21123;-66
2021/04/16 00:46:28;;;;;;;4.28;3.87;;;;;;;18.23;66.18;99184.16;1830170;77;21551;-66
2021/04/16 00:49:01;;;;;;;4.67;4.28;;;;;;;18.20;66.25;99181.92;1802958;78;21154;-68
2021/04/16 00:51:42;;;;;;;4.08;3.70;;;;;;;18.17;66.32;99185.06;1785462;79;21212;-67
2021/04/16 00:54:25;;;;;;;4.20;3.77;;;;;;;18.19;66.31;99184.30;1789396;78;21194;-67
2021/04/16 00:56:54;;;;;;;4.70;4.30;;;;;;;18.25;65.99;99184.74;1823940;78;21123;-68
2021/04/16 00:59:28;;;;;;;4.22;3.92;;;;;;;18.22;66.08;99188.42;1802079;78;21151;-67
2021/04/16 01:01:58;;;;;;;4.35;3.95;;;;;;;18.19;66.13;99188.87;1811547;78;21170;-69
2021/04/16 01:04:28;;;;;;;4.05;3.75;;;;;;;18.16;66.14;99194.19;1793047;78;21268;-68
2021/04/16 01:06:55;;;;;;;4.50;4.10;;;;;;;18.13;66.24;99189.27;1846098;77;21127;-68
2021/04/16 01:09:23;;;;;;;4.60;4.20;;;;;;;18.11;66.26;99184.64;1819397;78;21139;-68
2021/04/16 01:11:51;;;;;;;3.95;3.60;;;;;;;18.08;66.29;99183.25;1814244;78;21150;-67
2021/04/16 01:14:18;;;;;;;4.30;3.90;;;;;;;18.13;66.29;99182.55;1821758;77;21099;-66
2021/04/16 01:16:49;;;;;;;4.58;4.17;;;;;;;18.22;66.03;99184.39;1815013;77;21186;-66
2021/04/16 01:19:45;;;;;;;3.90;3.60;;;;;;;18.20;66.04;99187.30;1811610;78;21150;-68
2021/04/16 01:22:44;;;;;;;4.50;4.10;;;;;;;18.17;66.05;99185.59;1757912;78;21147;-69
2021/04/16 01:25:12;;;;;;;4.42;4.03;;;;;;;18.13;66.13;99183.08;1817241;77;21162;-68
2021/04/16 01:27:41;;;;;;;4.67;4.25;;;;;;;18.08;66.20;99181.09;1783692;77;21511;-69
2021/04/16 01:30:16;;;;;;;3.90;3.50;;;;;;;18.04;66.26;99176.70;1806169;78;21431;-68
2021/04/16 01:32:45;;;;;;;4.62;4.22;;;;;;;18.03;66.32;99175.58;1803604;78;21209;-68
2021/04/16 01:35:18;;;;;;;4.30;3.90;;;;;;;18.07;66.27;99172.19;1800423;78;21603;-65
2021/04/16 01:37:47;;;;;;;4.05;3.65;;;;;;;18.15;66.00;99175.06;1811345;78;21167;-67
2021/04/16 01:40:17;;;;;;;4.00;3.70;;;;;;;18.12;65.93;99176.89;1820515;78;21149;-66
2021/04/16 01:42:46;;;;;;;4.35;4.00;;;;;;;18.10;66.00;99171.43;1840334;77;21102;-66
2021/04/16 01:45:22;;;;;;;3.92;3.62;;;;;;;18.07;66.06;99176.75;1821782;77;21155;-66
2021/04/16 01:47:57;;;;;;;4.35;3.95;;;;;;;18.04;66.03;99176.70;1819021;77;21148;-66
2021/04/16 01:50:27;;;;;;;3.95;3.65;;;;;;;18.02;66.12;99180.14;1817250;77;21199;-66
2021/04/16 01:52:58;;;;;;;4.08;3.35;;;;;;;18.00;66.23;99178.72;1811305;78;21146;-67
2021/04/16 01:55:25;;;;;;;4.05;3.65;;;;;;;17.99;66.26;99181.12;1815261;78;21350;-65
2021/04/16 01:57:53;;;;;;;4.03;3.67;;;;;;;18.01;66.24;99177.15;1809984;78;22248;-67
2021/04/16 02:00:26;;;;;;;4.62;4.22;;;;;;;18.10;65.95;99180.84;1839446;77;21155;-65
2021/04/16 02:02:55;;;;;;;4.05;3.65;;;;;;;18.07;66.02;99179.44;1820273;77;21170;-65
2021/04/16 02:05:23;;;;;;;3.77;3.47;;;;;;;18.04;66.02;99175.86;1837142;77;21126;-67
2021/04/16 02:07:53;;;;;;;4.12;3.72;;;;;;;18.01;66.06;99172.30;1806836;78;21598;-68
2021/04/16 02:10:21;;;;;;;3.72;3.42;;;;;;;17.99;66.03;99176.56;1780511;79;21151;-68
2021/04/16 02:12:51;;;;;;;3.80;3.50;;;;;;;17.97;66.07;99174.62;1799473;78;21175;-68
2021/04/16 02:15:19;;;;;;;3.60;3.30;;;;;;;17.96;66.11;99172.98;1809956;78;21128;-68
2021/04/16 02:17:49;;;;;;;3.62;3.25;;;;;;;17.93;66.16;99172.11;1806137;78;21142;-68
2021/04/16 02:20:23;;;;;;;3.25;3.05;;;;;;;17.96;66.16;99174.86;1811917;77;21383;-67
2021/04/16 02:22:50;;;;;;;;;;;;;;;18.04;65.87;99179.39;1816066;78;21147;-67
2021/04/16 02:25:17;;;;;;;3.75;3.45;;;;;;;18.02;65.80;99175.27;1825635;77;20279;-67
2021/04/16 02:27:46;;;;;;;3.17;2.98;;;;;;;17.91;66.07;99174.75;1807171;77;21115;-67
2021/04/16 02:30:21;;;;;;;3.50;3.20;;;;;;;17.90;66.20;99169.06;1808311;77;21218;-67
2021/04/16 02:32:48;;;;;;;3.05;2.83;;;;;;;17.88;66.19;99173.31;1823065;78;21374;-66
2021/04/16 02:35:16;;;;;;;3.40;3.10;;;;;;;17.86;66.21;99177.56;1794382;78;21162;-66
2021/04/16 02:37:43;;;;;;;4.08;3.67;;;;;;;17.84;66.22;99169.45;1802639;78;21151;-68
2021/04/16 02:40:15;;;;;;;3.10;2.80;;;;;;;17.83;66.26;99169.14;1792377;78;21139;-68
2021/04/16 02:42:43;;;;;;;3.08;2.80;;;;;;;17.86;66.21;99172.20;1826299;77;21215;-68
2021/04/16 02:45:14;;;;;;;3.25;2.95;;;;;;;17.96;65.94;99176.20;1816175;77;21191;-68
2021/04/16 02:47:42;;;;;;;3.10;2.80;;;;;;;17.94;65.94;99166.20;1806646;77;21506;-67
2021/04/16 02:50:14;;;;;;;2.85;2.65;;;;;;;17.92;65.96;99172.34;1821160;78;21143;-67
2021/04/16 02:52:43;;;;;;;3.10;2.80;;;;;;;17.90;65.97;99171.22;1796518;78;21158;-68
2021/04/16 02:55:11;;;;;;;3.30;3.00;;;;;;;17.87;66.02;99177.87;1851730;77;21118;-66
2021/04/16 02:57:38;;;;;;;3.27;2.98;;;;;;;17.85;66.00;99175.14;1842231;77;21370;-66
2021/04/16 03:00:17;;;;;;;3.00;2.80;;;;;;;17.83;66.05;99178.02;1808354;77;21186;-67
2021/04/16 03:02:44;;;;;;;3.58;2.80;;;;;;;17.82;66.03;99175.55;1809466;77;21139;-67
2021/04/16 03:05:13;;;;;;;3.58;3.27;;;;;;;17.86;66.00;99171.38;1795487;78;21079;-66
2021/04/16 03:07:41;;;;;;;3.45;3.15;;;;;;;17.93;65.73;99172.64;1805617;78;21158;-67
2021/04/16 03:10:11;;;;;;;3.30;2.95;;;;;;;17.91;65.72;99175.55;1824694;77;21438;-66
2021/04/16 03:12:38;;;;;;;3.52;3.22;;;;;;;17.88;65.73;99170.09;1822679;78;21635;-68
2021/04/16 03:15:07;;;;;;;3.05;2.75;;;;;;;17.86;65.78;99170.04;1822788;78;21135;-67
2021/04/16 03:17:35;;;;;;;3.33;3.00;;;;;;;17.84;65.81;99164.08;1823705;78;21186;-66
2021/04/16 03:20:05;;;;;;;3.45;3.15;;;;;;;17.83;65.89;99169.14;1827100;77;21102;-65
2021/04/16 03:22:32;;;;;;;2.95;2.65;;;;;;;17.81;65.93;99171.21;1812762;78;21325;-66
2021/04/16 03:24:59;;;;;;;2.75;2.52;;;;;;;17.78;65.91;99173.84;1810159;78;21149;-67
2021/04/16 03:27:27;;;;;;;2.92;2.70;;;;;;;17.83;65.93;99171.83;1811369;78;21150;-66
2021/04/16 03:29:54;;;;;;;2.80;2.60;;;;;;;17.91;65.65;99171.52;1813993;78;21139;-66
2021/04/16 03:32:22;;;;;;;2.65;2.45;;;;;;;17.89;65.59;99172.28;1822815;77;21174;-67
2021/04/16 03:34:49;;;;;;;3.00;2.80;;;;;;;17.85;65.59;99170.58;1856860;77;21185;-66
2021/04/16 03:37:16;;;;;;;3.30;2.95;;;;;;;17.84;65.60;99176.17;1834065;77;21988;-68
2021/04/16 03:39:45;;;;;;;3.02;2.80;;;;;;;17.81;65.69;99176.09;1792909;77;21184;-67
2021/04/16 03:42:15;;;;;;;2.90;2.70;;;;;;;17.80;65.70;99173.09;1771554;78;21108;-67
2021/04/16 03:44:42;;;;;;;2.60;2.40;;;;;;;17.77;65.70;99180.28;1802760;77;21162;-69
2021/04/16 03:47:10;;;;;;;2.90;2.58;;;;;;;17.76;65.75;99175.12;1790129;79;21902;-66
2021/04/16 03:49:37;;;;;;;2.65;2.45;;;;;;;17.79;65.71;99174.16;1805065;78;21639;-66
2021/04/16 03:52:05;;;;;;;3.10;2.90;;;;;;;17.88;65.49;99176.00;1830041;77;22165;-66
2021/04/16 03:54:34;;;;;;;3.22;2.92;;;;;;;17.86;65.45;99178.10;1834986;77;21143;-67
2021/04/16 03:57:04;;;;;;;2.47;2.27;;;;;;;17.83;65.45;99176.67;1826042;77;21147;-66
2021/04/16 03:59:31;;;;;;;2.90;2.67;;;;;;;17.81;65.53;99181.45;1828514;77;22361;-66
2021/04/16 04:01:58;;;;;;;2.75;2.55;;;;;;;17.78;65.58;99179.22;1829140;77;21131;-66
2021/04/16 04:04:26;;;;;;;3.45;3.08;;;;;;;17.77;65.59;99178.09;1788211;78;21611;-67
2021/04/16 04:06:54;;;;;;;2.95;2.75;;;;;;;17.74;65.63;99183.41;1812541;78;21138;-68
2021/04/16 04:09:22;;;;;;;2.45;2.25;;;;;;;17.74;65.67;99186.63;1832916;78;21157;-65
2021/04/16 04:11:52;;;;;;;2.55;2.35;;;;;;;17.77;65.64;99183.47;1823297;77;21190;-67
2021/04/16 04:14:21;;;;;;;3.00;2.80;;;;;;;17.86;65.43;99180.79;1832726;77;21166;-66
2021/04/16 04:16:54;;;;;;;2.35;2.15;;;;;;;17.84;65.40;99186.92;1814679;77;21127;-68
2021/04/16 04:19:23;;;;;;;3.75;2.65;;;;;;;17.81;65.42;99181.95;1815198;78;21211;-67
2021/04/16 04:21:52;;;;;;;3.35;3.05;;;;;;;17.78;65.44;99181.09;1809187;78;21138;-67
2021/04/16 04:24:20;;;;;;;3.27;2.98;;;;;;;17.75;65.52;99185.06;1821289;78;22356;-67
2021/04/16 04:26:47;;;;;;;2.75;2.55;;;;;;;17.73;65.56;99184.97;1812552;77;21155;-67
2021/04/16 04:29:16;;;;;;;2.52;2.33;;;;;;;17.73;65.61;99191.69;1829728;77;21590;-67
2021/04/16 04:31:49;;;;;;;2.60;2.37;;;;;;;17.70;65.69;99192.98;1803566;77;21160;-69
2021/04/16 04:34:28;;;;;;;2.60;2.40;;;;;;;17.72;65.68;99188.73;1830929;77;22345;-67
2021/04/16 04:36:58;;;;;;;2.40;2.20;;;;;;;17.72;65.64;99192.22;1813862;78;21121;-68
2021/04/16 04:39:28;;;;;;;2.70;2.50;;;;;;;17.79;65.43;99187.58;1854659;75;21339;-68
2021/04/16 04:41:56;;;;;;;2.62;2.42;;;;;;;17.76;65.45;99190.72;1843813;77;21849;-68
2021/04/16 04:44:23;;;;;;;2.55;2.35;;;;;;;17.75;65.48;99193.13;1857191;75;21402;-67
2021/04/16 04:46:52;;;;;;;2.90;2.70;;;;;;;17.73;65.48;99183.13;1849901;75;21114;-67
2021/04/16 04:49:20;;;;;;;2.60;2.40;;;;;;;17.72;65.50;99186.84;1857254;75;21657;-68
2021/04/16 04:51:48;;;;;;;2.87;2.67;;;;;;;17.71;65.51;99189.76;1846865;77;22452;-67
2021/04/16 04:54:16;;;;;;;2.12;1.92;;;;;;;17.69;65.56;99188.64;1847273;77;21143;-66
2021/04/16 04:56:44;;;;;;;2.45;2.25;;;;;;;17.68;65.60;99189.70;1860592;75;21131;-67
2021/04/16 04:59:11;;;;;;;2.90;2.60;;;;;;;17.72;65.57;99184.16;1815069;77;21137;-69
2021/04/16 05:01:39;;;;;;;2.60;1.87;;;;;;;17.82;65.31;99183.08;1827551;77;21112;-66
2021/04/16 05:04:06;;;;;;;2.55;2.35;;;;;;;17.80;65.23;99185.17;1809235;78;23520;-66
2021/04/16 05:06:33;;;;;;;2.42;2.22;;;;;;;17.77;65.24;99185.66;1819196;77;21193;-66
2021/04/16 05:09:01;;;;;;;2.35;2.15;;;;;;;17.75;65.34;99182.38;1856279;77;21169;-65
2021/04/16 05:11:28;;;;;;;3.22;2.40;;;;;;;17.73;65.36;99188.50;1856746;77;21148;-67
2021/04/16 05:13:56;;;;;;;2.60;2.40;;;;;;;17.72;65.40;99190.88;1856236;77;21125;-66
2021/04/16 05:16:23;;;;;;;2.80;2.55;;;;;;;17.69;65.42;99186.80;1839301;77;21313;-69
2021/04/16 05:18:53;;;;;;;3.12;2.42;;;;;;;17.69;65.42;99188.64;1836496;77;21167;-70
2021/04/16 05:21:21;;;;;;;2.27;2.08;;;;;;;17.67;65.50;99186.70;1855492;77;21413;-69
2021/04/16 05:23:49;;;;;;;2.55;2.35;;;;;;;17.71;65.46;99184.39;1857131;77;21112;-69
2021/04/16 05:26:16;;;;;;;2.30;2.10;;;;;;;17.81;65.18;99180.61;1848618;77;21121;-69
2021/04/16 05:28:44;;;;;;;2.90;2.30;;;;;;;17.78;65.16;99181.91;1851533;77;21592;-71
2021/04/16 05:31:11;;;;;;;2.52;2.33;;;;;;;17.76;65.16;99180.50;1850174;77;21180;-71
2021/04/16 05:33:38;;;;;;;2.22;2.02;;;;;;;17.74;65.19;99173.20;1855518;77;21160;-70
2021/04/16 05:36:07;;;;;;;2.40;2.20;;;;;;;17.73;65.19;99177.76;1854967;77;21129;-71
2021/04/16 05:38:34;;;;;;;2.27;2.08;;;;;;;17.72;65.23;99181.48;1855172;77;21085;-68
2021/04/16 05:41:02;;;;;;;2.70;2.50;;;;;;;17.69;65.29;99180.58;1849907;77;22054;-67
2021/04/16 05:43:29;;;;;;;2.15;1.90;;;;;;;17.69;65.30;99179.23;1837182;77;21833;-69
2021/04/16 05:45:58;;;;;;;2.45;2.17;;;;;;;17.67;65.37;99187.55;1833530;76;21120;-70
2021/04/16 05:48:25;;;;;;;2.15;1.95;;;;;;;17.72;65.33;99183.35;1835751;77;21176;-68
2021/04/16 05:50:52;;;;;;;2.37;1.98;;;;;;;17.81;65.05;99186.83;1828250;76;21155;-68
2021/04/16 05:54:00;;;;;;;2.33;2.12;;;;;;;17.83;65.04;99178.55;1747954;79;22738;-70
2021/04/16 05:56:27;;;;;;;2.12;1.92;;;;;;;17.76;65.03;99189.38;1718533;82;21186;-69
2021/04/16 05:58:54;;;;;;;2.45;2.25;;;;;;;17.74;65.07;99187.44;1708601;82;21205;-70
2021/04/16 06:01:21;;;;;;;2.37;2.17;;;;;;;17.74;65.04;99191.47;1725081;82;21172;-69
2021/04/16 06:03:49;;;;;;;1.90;1.80;;;;;;;17.72;65.07;99192.22;1725384;82;21179;-68
2021/04/16 06:06:16;;;;;;;2.30;2.10;;;;;;;17.70;65.14;99188.95;1733167;82;21170;-69
2021/04/16 06:08:44;;;;;;;2.27;1.95;;;;;;;17.68;65.19;99192.39;1720513;82;21143;-69
2021/04/16 06:11:12;;;;;;;2.27;2.08;;;;;;;17.66;65.25;99189.11;1716965;82;21318;-69
2021/04/16 06:13:39;;;;;;;2.37;2.17;;;;;;;17.71;65.14;99189.23;1714118;82;21191;-69
2021/04/16 06:16:08;;;;;;;2.37;2.17;;;;;;;17.81;64.88;99190.02;1724869;82;21127;-68
2021/04/16 06:18:36;;;;;;;2.60;2.10;;;;;;;17.78;64.84;99198.02;1721547;82;21143;-69
2021/04/16 06:21:05;;;;;;;2.60;2.40;;;;;;;17.76;64.87;99192.59;1706863;82;21655;-69
2021/04/16 06:23:33;;;;;;;2.60;2.40;;;;;;;17.73;64.92;99193.87;1715108;82;21366;-69
2021/04/16 06:26:02;;;;;;;2.80;2.47;;;;;;;17.72;64.93;99198.13;1724878;82;21814;-68
2021/04/16 06:28:32;;;;;;;2.55;2.35;;;;;;;17.69;64.96;99200.22;1741022;82;21171;-70
2021/04/16 06:31:00;;;;;;;2.87;2.10;;;;;;;17.68;64.99;99200.45;1703988;82;21178;-68
2021/04/16 06:33:32;;;;;;;3.00;2.42;;;;;;;17.66;65.00;99203.88;1704445;82;21668;-70
2021/04/16 06:36:05;;;;;;;3.08;2.30;;;;;;;17.65;65.16;99200.89;1735587;82;21198;-71
2021/04/16 06:38:36;;;;;;;2.77;2.00;;;;;;;17.71;65.18;99201.84;1730886;82;21137;-67
2021/04/16 06:41:06;;;;;;;2.70;2.50;;;;;;;17.79;64.93;99211.77;1734469;82;21684;-69
2021/04/16 06:43:42;;;;;;;9.90;6.40;;;;;;;17.77;64.89;99205.80;1722032;82;21181;-62
2021/04/16 06:46:15;;;;;;;13.62;8.00;;;;;;;17.75;65.52;99183.72;1738550;82;21169;-61
2021/04/16 06:48:43;;;;;;;10.70;6.20;;;;;;;17.82;68.53;99184.42;1711558;82;22290;-73
2021/04/16 06:51:10;;;;;;;8.38;6.05;;;;;;;18.00;68.87;99212.31;1724020;82;21115;-71
2021/04/16 06:53:49;;;;;;;11.40;6.90;;;;;;;18.17;68.27;99207.09;1726831;81;21654;-72
2021/04/16 06:56:33;;;;;;;12.70;6.83;;;;;;;18.32;67.48;99212.05;1721164;82;21213;-70
2021/04/16 06:59:15;;;;;;;12.53;6.58;;;;;;;18.32;67.05;99211.51;1731035;82;21587;-72
2021/04/16 07:02:03;;;;;;;9.65;6.50;;;;;;;18.28;66.79;99208.45;1723157;82;21377;-69
2021/04/16 07:04:50;;;;;;;11.30;6.58;;;;;;;18.25;66.67;99212.97;1734914;82;21134;-69
2021/04/16 07:07:33;;;;;;;10.72;6.20;;;;;;;18.21;66.54;99215.80;1714323;82;21211;-70
2021/04/16 07:10:13;;;;;;;9.90;6.28;;;;;;;18.16;66.39;99211.66;1728286;82;21228;-78
2021/04/16 07:12:41;;;;;;;10.60;6.47;;;;;;;18.11;66.32;99211.52;1730570;82;21164;-75
2021/04/16 07:15:12;;;;;;;9.13;6.08;;;;;;;18.08;66.26;99209.31;1725231;82;21215;-75
2021/04/16 07:17:43;;;;;;;9.53;5.92;;;;;;;18.13;66.07;99216.14;1721257;82;26593;-75
2021/04/16 07:20:13;;;;;;;9.58;6.53;;;;;;;18.20;65.66;99220.09;1722406;82;21146;-75
2021/04/16 07:22:45;;;;;;;10.35;5.53;;;;;;;18.16;65.54;99222.41;1720408;82;21187;-74
2021/04/16 07:25:43;;;;;;;7.63;6.00;;;;;;;18.13;65.46;99224.74;1719134;82;21152;-73
2021/04/16 07:28:31;;;;;;;8.48;5.28;;;;;;;18.08;65.36;99216.03;1723472;82;22413;-76
2021/04/16 07:30:59;;;;;;;8.13;5.47;;;;;;;18.05;65.38;99222.67;1720738;82;21226;-76
2021/04/16 07:33:37;;;;;;;8.20;5.53;;;;;;;18.00;65.37;99221.72;1730704;82;21151;-76
2021/04/16 07:36:27;;;;;;;7.92;5.60;;;;;;;17.98;65.35;99226.50;1724701;82;21152;-74
2021/04/16 07:39:16;;;;;;;8.60;5.55;;;;;;;17.96;65.27;99232.63;1718761;82;21152;-75
2021/04/16 07:42:12;;;;;;;8.93;5.40;;;;;;;17.92;65.33;99231.45;1726894;82;21393;-74
2021/04/16 07:45:01;;;;;;;7.45;5.33;;;;;;;17.98;65.19;99226.50;1729427;81;21197;-73
2021/04/16 07:47:31;;;;;;;8.15;5.22;;;;;;;18.03;64.84;99226.64;1723821;82;21184;-75
2021/04/16 07:50:13;;;;;;;6.08;4.70;;;;;;;17.98;64.87;99231.87;1724333;82;21198;-71
2021/04/16 07:52:45;;;;;;;7.50;5.30;;;;;;;17.94;64.91;99232.85;1741382;82;21191;-77
2021/04/16 07:55:31;;;;;;;;;;;;;;;17.92;64.90;99236.30;1726933;82;21237;-77
2021/04/16 07:58:17;;;;;;;6.75;4.58;;;;;;;17.90;64.91;99241.08;1737971;82;21149;-75
2021/04/16 08:00:45;;;;;;;6.28;4.60;;;;;;;17.80;65.12;99240.25;1722729;82;21143;-74
2021/04/16 08:03:22;;;;;;;6.42;4.78;;;;;;;17.77;65.12;99232.66;1728427;82;21196;-75
2021/04/16 08:05:53;;;;;;;5.58;4.37;;;;;;;17.77;65.11;99239.37;1743351;82;21179;-73
2021/04/16 08:08:29;;;;;;;7.40;5.22;;;;;;;17.77;65.09;99238.54;1734475;82;22259;-76
2021/04/16 08:11:12;;;;;;;6.25;4.60;;;;;;;17.83;64.97;99237.13;1718721;82;21172;-74
2021/04/16 08:13:50;;;;;;;5.50;4.45;;;;;;;17.93;64.57;99245.20;1721326;82;21172;-72
2021/04/16 08:16:29;;;;;;;6.55;4.58;;;;;;;17.91;64.54;99237.89;1718559;82;21171;-72
2021/04/16 08:19:33;;;;;;;6.42;4.33;;;;;;;17.87;64.55;99236.18;1718511;82;21170;-77
2021/04/16 08:22:27;;;;;;;6.03;4.03;;;;;;;17.85;64.55;99236.94;1725748;82;21207;-74
2021/04/16 08:25:01;;;;;;;5.50;4.35;;;;;;;17.82;64.61;99240.84;1736583;82;21575;-76
2021/04/16 08:27:55;;;;;;;4.92;4.30;;;;;;;17.79;64.66;99236.44;1723465;82;21149;-76
2021/04/16 08:30:40;;;;;;;4.60;3.90;;;;;;;17.78;64.64;99242.88;1724014;82;21295;-71
2021/04/16 08:33:34;;;;;;;5.30;4.40;;;;;;;17.76;64.63;99235.58;1735002;80;21210;-70
2021/04/16 08:36:33;;;;;;;8.80;4.60;;;;;;;17.75;64.65;99241.98;1743813;80;21346;-74
2021/04/16 08:39:16;;;;;;;4.15;3.75;;;;;;;17.73;64.66;99244.08;1730151;82;21607;-73
2021/04/16 08:42:01;;;;;;;5.25;3.80;;;;;;;17.81;64.55;99243.75;1736811;82;21190;-71
2021/04/16 08:44:28;;;;;;;6.28;4.40;;;;;;;17.85;64.41;99241.77;1734486;82;21108;-73
2021/04/16 08:46:58;;;;;;;5.55;4.62;;;;;;;17.84;64.42;99244.68;1721334;82;21597;-71
2021/04/16 08:49:32;;;;;;;6.05;4.05;;;;;;;17.83;64.44;99245.18;1735086;82;21402;-75
2021/04/16 08:52:14;;;;;;;7.83;4.80;;;;;;;17.82;64.52;99243.53;1724496;82;21658;-72
2021/04/16 08:54:42;;;;;;;5.58;4.40;;;;;;;17.83;64.59;99248.41;1705332;82;21180;-74
2021/04/16 08:57:15;;;;;;;6.10;3.98;;;;;;;17.81;64.72;99247.28;1730571;82;21177;-75
2021/04/16 09:00:12;;;;;;;5.28;4.08;;;;;;;17.82;64.71;99250.25;1736445;81;21132;-74
2021/04/16 09:02:47;;;;;;;5.72;4.22;;;;;;;17.82;64.74;99249.44;1719207;81;21211;-74
2021/04/16 09:05:29;;;;;;;4.70;3.87;;;;;;;17.81;64.74;99251.31;1708611;82;21207;-73
2021/04/16 09:08:11;;;;;;;5.42;4.35;;;;;;;17.87;64.76;99251.77;1707307;82;21128;-74
2021/04/16 09:10:53;;;;;;;5.37;4.37;;;;;;;17.97;64.50;99249.88;1717902;82;21192;-75
2021/04/16 09:13:44;;;;;;;7.05;4.28;;;;;;;17.97;64.58;99254.44;1708786;82;21158;-76
2021/04/16 09:16:21;;;;;;;5.58;4.30;;;;;;;17.95;64.55;99255.19;1703219;82;21213;-74
2021/04/16 09:18:51;;;;;;;5.60;4.20;;;;;;;17.93;64.60;99258.10;1715498;81;21666;-75
2021/04/16 09:21:27;;;;;;;5.40;4.17;;;;;;;17.92;64.68;99252.95;1727825;81;21196;-75
2021/04/16 09:24:08;;;;;;;4.08;3.42;;;;;;;17.92;64.68;99252.95;1709662;82;21599;-73
2021/04/16 09:26:52;;;;;;;5.70;3.95;;;;;;;17.92;64.73;99252.95;1708507;82;21212;-73
2021/04/16 09:29:31;;;;;;;4.05;3.17;;;;;;;17.91;64.72;99254.02;1723278;82;21214;-72
2021/04/16 09:32:05;;;;;;;4.75;3.95;;;;;;;17.90;64.77;99255.86;1733538;81;21213;-75
2021/04/16 09:34:49;;;;;;;4.22;3.60;;;;;;;17.97;64.68;99251.75;1706530;82;21172;-72
2021/04/16 09:37:35;;;;;;;5.03;4.08;;;;;;;18.06;64.36;99253.89;1712048;82;21188;-71
2021/04/16 09:40:25;;;;;;;5.72;3.62;;;;;;;18.05;64.42;99256.80;1694777;82;21608;-72
2021/04/16 09:43:09;;;;;;;5.53;4.10;;;;;;;18.03;64.53;99257.02;1713359;82;21358;-71
2021/04/16 09:45:51;;;;;;;4.25;3.77;;;;;;;18.02;64.61;99255.90;1711369;82;21168;-72
2021/04/16 09:48:33;;;;;;;4.53;3.60;;;;;;;18.02;64.67;99262.11;1721124;80;21540;-72
2021/04/16 09:51:06;;;;;;;4.08;3.67;;;;;;;18.01;64.77;99255.09;1689962;82;21211;-70
2021/04/16 09:53:37;;;;;;;6.42;4.17;;;;;;;18.02;64.82;99257.23;1711420;81;21231;-73
2021/04/16 09:56:17;;;;;;;4.15;3.35;;;;;;;18.01;64.90;99259.12;1720535;83;21362;-71
2021/04/16 09:58:57;;;;;;;4.17;3.77;;;;;;;18.02;64.89;99255.90;1690394;83;21151;-70
2021/04/16 10:01:28;;;;;;;4.80;4.03;;;;;;;18.09;64.85;99259.31;1722964;83;21195;-74
2021/04/16 10:04:06;;;;;;;4.17;3.70;;;;;;;18.18;64.60;99257.95;1693621;83;21166;-73
2021/04/16 10:06:42;;;;;;;3.47;3.17;;;;;;;18.18;64.54;99258.48;1681890;84;21462;-72
2021/04/16 10:09:22;;;;;;;4.08;3.50;;;;;;;18.16;64.58;99260.05;1694676;81;21382;-75
2021/04/16 10:12:03;;;;;;;4.47;3.52;;;;;;;18.15;64.58;99265.12;1674722;84;21226;-76
2021/04/16 10:14:35;;;;;;;3.85;3.40;;;;;;;18.15;64.67;99262.43;1702518;83;21131;-74
2021/04/16 10:17:10;;;;;;;4.00;3.17;;;;;;;18.14;64.62;99262.65;1697625;83;21226;-73
2021/04/16 10:19:43;;;;;;;4.20;3.50;;;;;;;18.12;64.67;99261.56;1714117;83;21198;-72
2021/04/16 10:22:20;;;;;;;5.20;3.95;;;;;;;18.12;64.69;99268.28;1696772;83;21569;-74
2021/04/16 12:39:44;;;;;;;3.85;3.45;;;;;;;18.24;63.56;99278.53;1811163;76;21135;-72
2021/04/16 12:42:11;;;;;;;3.30;3.00;;;;;;;18.23;63.54;99282.79;1816116;76;21652;-73
2021/04/16 12:44:47;;;;;;;3.83;3.00;;;;;;;18.21;63.51;99277.64;1801931;76;21191;-74
2021/04/16 12:47:25;;;;;;;3.33;2.83;;;;;;;18.21;63.49;99278.98;1802743;78;21563;-71
2021/04/16 12:49:53;;;;;;;3.52;3.05;;;;;;;18.19;63.48;99275.70;1815780;78;21162;-67
2021/04/16 12:52:21;;;;;;;4.00;3.02;;;;;;;18.18;63.50;99278.64;1820459;77;21147;-69
2021/04/16 12:54:52;;;;;;;3.70;2.98;;;;;;;18.17;63.53;99277.80;1820839;78;21206;-74
2021/04/16 12:57:40;;;;;;;3.83;2.98;;;;;;;18.23;63.40;99274.22;1804439;78;21143;-72
2021/04/16 13:00:18;;;;;;;3.55;2.75;;;;;;;18.33;63.09;99276.85;1793652;78;21192;-75
2021/04/16 13:02:45;;;;;;;3.90;3.27;;;;;;;18.29;62.99;99273.80;1786935;78;21131;-72
2021/04/16 13:05:15;;;;;;;3.02;2.70;;;;;;;18.26;63.01;99276.97;1818810;78;21235;-71
2021/04/16 13:07:42;;;;;;;3.50;3.20;;;;;;;18.25;62.95;99278.00;1822578;77;21591;-69
2021/04/16 13:10:18;;;;;;;3.10;2.77;;;;;;;18.24;62.97;99277.72;1790870;78;22305;-72
2021/04/16 13:12:45;;;;;;;3.58;3.00;;;;;;;18.23;62.94;99281.45;1833267;77;21139;-75
2021/04/16 13:15:19;;;;;;;3.58;3.12;;;;;;;18.21;62.95;99278.17;1825997;77;21198;-72
2021/04/16 13:17:57;;;;;;;3.02;2.62;;;;;;;18.19;62.91;99281.08;1848234;76;21584;-73
2021/04/16 13:20:25;;;;;;;4.25;3.27;;;;;;;18.18;62.86;99279.45;1853325;75;21248;-73
2021/04/16 13:22:53;;;;;;;3.67;3.37;;;;;;;18.15;62.94;99274.52;1830418;76;21186;-73
2021/04/16 13:25:26;;;;;;;3.25;2.90;;;;;;;18.15;62.94;99277.75;1833747;76;21436;-71
2021/04/16 13:27:53;;;;;;;3.40;2.87;;;;;;;18.11;62.92;99272.00;1827078;76;21144;-70
2021/04/16 13:30:24;;;;;;;3.90;3.50;;;;;;;18.10;62.89;99274.41;1836382;76;21642;-69
2021/04/16 13:32:55;;;;;;;3.40;3.10;;;;;;;18.09;62.91;99279.48;1830136;76;21136;-74
2021/04/16 13:35:35;;;;;;;3.25;2.95;;;;;;;18.06;62.90;99276.73;1826113;77;21570;-70
2021/04/16 13:38:05;;;;;;;2.60;2.40;;;;;;;18.11;62.81;99277.37;1825910;77;21250;-70
2021/04/16 13:40:34;;;;;;;3.92;3.05;;;;;;;18.20;62.49;99281.39;1826059;77;21298;-78
2021/04/16 13:43:02;;;;;;;3.72;3.20;;;;;;;18.17;62.52;99276.45;1851900;77;21148;-73
2021/04/16 13:45:29;;;;;;;3.27;2.98;;;;;;;18.15;62.51;99280.44;1834912;77;21178;-71
2021/04/16 13:47:56;;;;;;;3.90;2.83;;;;;;;18.12;62.52;99280.38;1825935;78;21252;-75
2021/04/16 13:50:24;;;;;;;3.65;3.35;;;;;;;18.11;62.53;99278.72;1811192;78;21175;-72
2021/04/16 13:52:52;;;;;;;3.25;2.80;;;;;;;18.10;62.45;99279.79;1800234;78;21146;-72
2021/04/16 13:55:20;;;;;;;3.25;2.95;;;;;;;18.08;62.48;99274.63;1841137;75;21174;-73
2021/04/16 13:57:47;;;;;;;3.35;3.05;;;;;;;18.07;62.46;99278.89;1844029;76;21146;-72
2021/04/16 14:00:21;;;;;;;3.00;2.70;;;;;;;18.06;62.43;99281.30;1833388;77;22111;-74
2021/04/16 14:03:06;;;;;;;3.60;3.00;;;;;;;18.04;62.44;99280.17;1823266;77;21154;-73
2021/04/16 14:05:46;;;;;;;3.30;2.98;;;;;;;18.06;62.42;99275.39;1810643;77;22709;-74
2021/04/16 14:08:22;;;;;;;3.58;3.22;;;;;;;18.01;62.39;99276.59;1782288;79;21174;-74
2021/04/16 14:10:49;;;;;;;3.52;2.98;;;;;;;17.99;62.43;99280.56;1778317;80;22536;-74
2021/04/16 14:13:17;;;;;;;3.70;3.05;;;;;;;17.97;62.43;99277.28;1799731;79;21612;-71
2021/04/16 14:15:44;;;;;;;3.62;3.33;;;;;;;17.96;62.44;99276.97;1786178;79;21562;-75